sensor_id;sensor_type;location;lat;lon;timestamp;pressure;altitude;pressure_sealevel;temperature;humidity
66196;BME280;53000;45.182;5.736;2022-11-11T00:01:06;100684.72;;;12.83;66.43
66196;BME280;53000;45.182;5.736;2022-11-11T00:03:39;100684.91;;;12.81;66.33
66196;BME280;53000;45.182;5.736;2022-11-11T00:06:08;100675.16;;;12.79;66.10
66196;BME280;53000;45.182;5.736;2022-11-11T00:08:36;100670.34;;;12.73;66.31
66196;BME280;53000;45.182;5.736;2022-11-11T00:11:04;100668.78;;;12.70;66.41
66196;BME280;53000;45.182;5.736;2022-11-11T00:13:31;100668.63;;;12.72;66.47
66196;BME280;53000;45.182;5.736;2022-11-11T00:16:05;100666.50;;;12.65;65.99
66196;BME280;53000;45.182;5.736;2022-11-11T00:18:31;100666.81;;;12.62;66.17
66196;BME280;53000;45.182;5.736;2022-11-11T00:21:17;100663.53;;;12.59;66.51
66196;BME280;53000;45.182;5.736;2022-11-11T00:24:02;100662.13;;;12.55;66.34
66196;BME280;53000;45.182;5.736;2022-11-11T00:26:46;100655.97;;;12.53;66.43
66196;BME280;53000;45.182;5.736;2022-11-11T00:29:11;100660.88;;;12.49;66.46
66196;BME280;53000;45.182;5.736;2022-11-11T00:31:36;100664.56;;;12.48;66.54
66196;BME280;53000;45.182;5.736;2022-11-11T00:34:22;100664.00;;;12.44;66.95
66196;BME280;53000;45.182;5.736;2022-11-11T00:36:47;100665.88;;;12.44;66.57
66196;BME280;53000;45.182;5.736;2022-11-11T00:39:12;100674.00;;;12.44;66.80
66196;BME280;53000;45.182;5.736;2022-11-11T00:41:38;100675.88;;;12.43;66.66
66196;BME280;53000;45.182;5.736;2022-11-11T00:44:05;100682.59;;;12.39;66.50
66196;BME280;53000;45.182;5.736;2022-11-11T00:46:35;100677.31;;;12.38;66.38
66196;BME280;53000;45.182;5.736;2022-11-11T00:49:43;100676.91;;;12.33;66.71
66196;BME280;53000;45.182;5.736;2022-11-11T00:52:27;100683.63;;;12.28;66.32
66196;BME280;53000;45.182;5.736;2022-11-11T00:55:00;100673.78;;;12.27;66.30
66196;BME280;53000;45.182;5.736;2022-11-11T00:57:28;100682.22;;;12.24;66.68
66196;BME280;53000;45.182;5.736;2022-11-11T00:59:55;100685.94;;;12.23;66.75
66196;BME280;53000;45.182;5.736;2022-11-11T01:02:24;100691.66;;;12.20;66.72
66196;BME280;53000;45.182;5.736;2022-11-11T01:04:51;100693.63;;;12.18;66.64
66196;BME280;53000;45.182;5.736;2022-11-11T01:07:19;100692.66;;;12.19;66.87
66196;BME280;53000;45.182;5.736;2022-11-11T01:09:44;100698.09;;;12.19;66.35
66196;BME280;53000;45.182;5.736;2022-11-11T01:12:12;100694.78;;;12.16;66.77
66196;BME280;53000;45.182;5.736;2022-11-11T01:14:37;100697.38;;;12.17;66.66
66196;BME280;53000;45.182;5.736;2022-11-11T01:17:05;100696.34;;;12.18;66.88
66196;BME280;53000;45.182;5.736;2022-11-11T01:19:33;100698.34;;;12.16;66.48
66196;BME280;53000;45.182;5.736;2022-11-11T01:22:01;100706.94;;;12.12;66.69
66196;BME280;53000;45.182;5.736;2022-11-11T01:24:27;100719.53;;;12.13;66.35
66196;BME280;53000;45.182;5.736;2022-11-11T01:27:12;100711.38;;;12.13;66.86
66196;BME280;53000;45.182;5.736;2022-11-11T01:29:40;100712.22;;;12.13;66.51
66196;BME280;53000;45.182;5.736;2022-11-11T01:32:05;100707.78;;;12.12;66.70
66196;BME280;53000;45.182;5.736;2022-11-11T01:34:31;100713.38;;;12.11;66.59
66196;BME280;53000;45.182;5.736;2022-11-11T01:36:59;100711.53;;;12.11;66.48
66196;BME280;53000;45.182;5.736;2022-11-11T01:39:26;100706.09;;;12.11;66.35
66196;BME280;53000;45.182;5.736;2022-11-11T01:41:57;100707.97;;;12.11;66.53
66196;BME280;53000;45.182;5.736;2022-11-11T01:44:44;100703.38;;;12.11;66.41
66196;BME280;53000;45.182;5.736;2022-11-11T01:47:19;100701.81;;;12.09;66.09
66196;BME280;53000;45.182;5.736;2022-11-11T01:49:55;100712.94;;;12.05;66.54
66196;BME280;53000;45.182;5.736;2022-11-11T01:52:29;100710.53;;;12.02;66.33
66196;BME280;53000;45.182;5.736;2022-11-11T01:55:22;100709.38;;;11.95;66.22
66196;BME280;53000;45.182;5.736;2022-11-11T01:57:53;100698.69;;;11.94;66.77
66196;BME280;53000;45.182;5.736;2022-11-11T02:00:23;100707.81;;;11.93;66.54
66196;BME280;53000;45.182;5.736;2022-11-11T02:02:57;100707.25;;;11.89;66.57
66196;BME280;53000;45.182;5.736;2022-11-11T02:05:28;100716.13;;;11.91;66.69
66196;BME280;53000;45.182;5.736;2022-11-11T02:08:34;100709.66;;;11.92;66.28
66196;BME280;53000;45.182;5.736;2022-11-11T02:13:32;100711.81;;;11.89;66.85
66196;BME280;53000;45.182;5.736;2022-11-11T02:16:28;100718.47;;;11.84;66.31
66196;BME280;53000;45.182;5.736;2022-11-11T02:18:54;100720.63;;;11.81;66.71
66196;BME280;53000;45.182;5.736;2022-11-11T02:21:29;100720.34;;;11.74;66.38
66196;BME280;53000;45.182;5.736;2022-11-11T02:24:10;100717.34;;;11.68;66.25
66196;BME280;53000;45.182;5.736;2022-11-11T02:26:42;100719.19;;;11.67;66.56
66196;BME280;53000;45.182;5.736;2022-11-11T02:29:12;100720.06;;;11.68;67.20
66196;BME280;53000;45.182;5.736;2022-11-11T02:31:44;100717.34;;;11.68;67.11
66196;BME280;53000;45.182;5.736;2022-11-11T02:34:09;100724.06;;;11.63;66.56
66196;BME280;53000;45.182;5.736;2022-11-11T02:36:36;100726.78;;;11.63;67.08
66196;BME280;53000;45.182;5.736;2022-11-11T02:39:02;100725.03;;;11.62;66.83
66196;BME280;53000;45.182;5.736;2022-11-11T02:41:35;100720.34;;;11.64;66.82
66196;BME280;53000;45.182;5.736;2022-11-11T02:44:23;100728.59;;;11.63;67.17
66196;BME280;53000;45.182;5.736;2022-11-11T02:46:49;100731.31;;;11.63;67.27
66196;BME280;53000;45.182;5.736;2022-11-11T02:49:17;100735.63;;;11.65;66.49
66196;BME280;53000;45.182;5.736;2022-11-11T02:51:44;100734.91;;;11.63;67.28
66196;BME280;53000;45.182;5.736;2022-11-11T02:54:12;100730.59;;;11.61;66.93
66196;BME280;53000;45.182;5.736;2022-11-11T02:56:42;100727.16;;;11.59;66.21
66196;BME280;53000;45.182;5.736;2022-11-11T02:59:26;100733.00;;;11.54;66.93
66196;BME280;53000;45.182;5.736;2022-11-11T03:01:51;100736.88;;;11.52;66.74
66196;BME280;53000;45.182;5.736;2022-11-11T03:04:20;100739.00;;;11.48;67.00
66196;BME280;53000;45.182;5.736;2022-11-11T03:06:45;100741.56;;;11.50;66.27
66196;BME280;53000;45.182;5.736;2022-11-11T03:09:10;100739.00;;;11.48;66.60
66196;BME280;53000;45.182;5.736;2022-11-11T03:11:41;100745.72;;;11.44;66.38
66196;BME280;53000;45.182;5.736;2022-11-11T03:14:08;100749.28;;;11.44;66.53
66196;BME280;53000;45.182;5.736;2022-11-11T03:16:36;100753.69;;;11.45;67.20
66196;BME280;53000;45.182;5.736;2022-11-11T03:19:23;100752.00;;;11.44;67.31
66196;BME280;53000;45.182;5.736;2022-11-11T03:21:48;100756.69;;;11.42;66.77
66196;BME280;53000;45.182;5.736;2022-11-11T03:24:13;100752.53;;;11.38;66.46
66196;BME280;53000;45.182;5.736;2022-11-11T03:26:41;100760.69;;;11.38;66.44
66196;BME280;53000;45.182;5.736;2022-11-11T03:29:09;100766.09;;;11.38;67.20
66196;BME280;53000;45.182;5.736;2022-11-11T03:31:34;100772.09;;;11.42;66.88
66196;BME280;53000;45.182;5.736;2022-11-11T03:34:01;100771.22;;;11.41;66.71
66196;BME280;53000;45.182;5.736;2022-11-11T03:36:45;100782.34;;;11.38;66.70
66196;BME280;53000;45.182;5.736;2022-11-11T03:39:32;100786.34;;;11.34;66.72
66196;BME280;53000;45.182;5.736;2022-11-11T03:41:57;100785.63;;;11.32;66.46
66196;BME280;53000;45.182;5.736;2022-11-11T03:44:23;100787.72;;;11.29;66.59
66196;BME280;53000;45.182;5.736;2022-11-11T03:46:48;100786.16;;;11.26;66.68
66196;BME280;53000;45.182;5.736;2022-11-11T03:49:14;100790.72;;;11.25;66.99
66196;BME280;53000;45.182;5.736;2022-11-11T03:51:39;100794.59;;;11.23;67.27
66196;BME280;53000;45.182;5.736;2022-11-11T03:54:07;100800.84;;;11.23;67.34
66196;BME280;53000;45.182;5.736;2022-11-11T03:56:33;100804.53;;;11.22;66.91
66196;BME280;53000;45.182;5.736;2022-11-11T03:59:00;100805.69;;;11.20;66.94
66196;BME280;53000;45.182;5.736;2022-11-11T04:01:28;100805.84;;;11.18;66.86
66196;BME280;53000;45.182;5.736;2022-11-11T04:04:11;100810.53;;;11.16;67.36
66196;BME280;53000;45.182;5.736;2022-11-11T04:06:58;100807.94;;;11.15;67.03
66196;BME280;53000;45.182;5.736;2022-11-11T04:09:42;100811.06;;;11.10;67.40
66196;BME280;53000;45.182;5.736;2022-11-11T04:12:30;100806.63;;;11.09;66.56
66196;BME280;53000;45.182;5.736;2022-11-11T04:14:56;100802.06;;;11.10;67.39
66196;BME280;53000;45.182;5.736;2022-11-11T04:17:43;100803.78;;;11.11;66.60
66196;BME280;53000;45.182;5.736;2022-11-11T04:20:08;100809.34;;;11.09;66.30
66196;BME280;53000;45.182;5.736;2022-11-11T04:22:52;100810.03;;;11.01;67.45
66196;BME280;53000;45.182;5.736;2022-11-11T04:25:20;100813.16;;;10.97;67.08
66196;BME280;53000;45.182;5.736;2022-11-11T04:28:06;100819.81;;;10.93;67.61
66196;BME280;53000;45.182;5.736;2022-11-11T04:30:53;100813.69;;;10.91;67.40
66196;BME280;53000;45.182;5.736;2022-11-11T04:33:19;100822.78;;;10.90;67.85
66196;BME280;53000;45.182;5.736;2022-11-11T04:35:48;100821.81;;;10.91;67.57
66196;BME280;53000;45.182;5.736;2022-11-11T04:38:21;100827.34;;;10.89;66.83
66196;BME280;53000;45.182;5.736;2022-11-11T04:41:08;100821.81;;;10.91;67.37
66196;BME280;53000;45.182;5.736;2022-11-11T04:43:37;100824.66;;;10.89;67.26
66196;BME280;53000;45.182;5.736;2022-11-11T04:46:24;100824.53;;;10.91;67.34
66196;BME280;53000;45.182;5.736;2022-11-11T04:48:49;100833.50;;;10.91;67.67
66196;BME280;53000;45.182;5.736;2022-11-11T04:51:15;100836.22;;;10.91;67.38
66196;BME280;53000;45.182;5.736;2022-11-11T04:53:40;100842.59;;;10.90;67.18
66196;BME280;53000;45.182;5.736;2022-11-11T04:56:10;100851.59;;;10.91;67.01
66196;BME280;53000;45.182;5.736;2022-11-11T04:59:02;100850.00;;;10.88;67.60
66196;BME280;53000;45.182;5.736;2022-11-11T05:01:44;100846.44;;;10.88;67.72
66196;BME280;53000;45.182;5.736;2022-11-11T05:04:42;100847.44;;;10.87;67.27
66196;BME280;53000;45.182;5.736;2022-11-11T05:07:09;100851.97;;;10.86;68.05
66196;BME280;53000;45.182;5.736;2022-11-11T05:09:56;100861.00;;;10.87;67.34
66196;BME280;53000;45.182;5.736;2022-11-11T05:12:24;100863.94;;;10.83;67.33
66196;BME280;53000;45.182;5.736;2022-11-11T05:14:51;100865.94;;;10.81;67.43
66196;BME280;53000;45.182;5.736;2022-11-11T05:17:38;100861.50;;;10.80;67.89
66196;BME280;53000;45.182;5.736;2022-11-11T05:20:39;100862.66;;;10.78;67.82
66196;BME280;53000;45.182;5.736;2022-11-11T05:23:25;100872.03;;;10.74;67.85
66196;BME280;53000;45.182;5.736;2022-11-11T05:26:13;100872.88;;;10.74;67.40
66196;BME280;53000;45.182;5.736;2022-11-11T05:28:39;100871.28;;;10.72;68.10
66196;BME280;53000;45.182;5.736;2022-11-11T05:31:11;100874.84;;;10.72;68.03
66196;BME280;53000;45.182;5.736;2022-11-11T05:33:39;100889.25;;;10.73;67.59
66196;BME280;53000;45.182;5.736;2022-11-11T05:36:07;100886.41;;;10.74;68.09
66196;BME280;53000;45.182;5.736;2022-11-11T05:38:34;100890.25;;;10.72;67.52
66196;BME280;53000;45.182;5.736;2022-11-11T05:41:02;100887.53;;;10.72;67.43
66196;BME280;53000;45.182;5.736;2022-11-11T05:43:29;100900.22;;;10.71;67.82
66196;BME280;53000;45.182;5.736;2022-11-11T05:46:04;100888.28;;;10.74;67.11
66196;BME280;53000;45.182;5.736;2022-11-11T05:48:31;100897.69;;;10.79;68.02
66196;BME280;53000;45.182;5.736;2022-11-11T05:51:12;100892.16;;;10.81;68.07
66196;BME280;53000;45.182;5.736;2022-11-11T05:53:55;100897.47;;;10.82;68.01
66196;BME280;53000;45.182;5.736;2022-11-11T05:56:20;100894.88;;;10.81;67.87
66196;BME280;53000;45.182;5.736;2022-11-11T05:58:48;100896.31;;;10.85;67.71
66196;BME280;53000;45.182;5.736;2022-11-11T06:01:14;100892.78;;;10.84;67.87
66196;BME280;53000;45.182;5.736;2022-11-11T06:03:39;100904.44;;;10.85;67.69
66196;BME280;53000;45.182;5.736;2022-11-11T06:06:04;100903.59;;;10.84;67.93
66196;BME280;53000;45.182;5.736;2022-11-11T06:08:34;100906.44;;;10.83;68.07
66196;BME280;53000;45.182;5.736;2022-11-11T06:11:02;100904.84;;;10.80;67.72
66196;BME280;53000;45.182;5.736;2022-11-11T06:13:28;100908.53;;;10.79;67.33
66196;BME280;53000;45.182;5.736;2022-11-11T06:15:58;100909.78;;;10.75;68.02
66196;BME280;53000;45.182;5.736;2022-11-11T06:18:23;100909.78;;;10.75;67.67
66196;BME280;53000;45.182;5.736;2022-11-11T06:20:58;100914.34;;;10.75;67.79
66196;BME280;53000;45.182;5.736;2022-11-11T06:23:31;100917.78;;;10.77;67.54
66196;BME280;53000;45.182;5.736;2022-11-11T06:25:57;100926.03;;;10.75;67.66
66196;BME280;53000;45.182;5.736;2022-11-11T06:28:43;100925.06;;;10.76;68.20
66196;BME280;53000;45.182;5.736;2022-11-11T06:31:13;100915.06;;;10.77;67.44
66196;BME280;53000;45.182;5.736;2022-11-11T06:33:40;100927.16;;;10.73;67.46
66196;BME280;53000;45.182;5.736;2022-11-11T06:36:09;100938.72;;;10.75;67.67
66196;BME280;53000;45.182;5.736;2022-11-11T06:38:45;100936.41;;;10.70;67.26
66196;BME280;53000;45.182;5.736;2022-11-11T06:41:11;100929.41;;;10.68;67.42
66196;BME280;53000;45.182;5.736;2022-11-11T06:43:46;100931.00;;;10.70;67.77
66196;BME280;53000;45.182;5.736;2022-11-11T06:46:24;100934.56;;;10.71;67.74
66196;BME280;53000;45.182;5.736;2022-11-11T06:48:50;100934.56;;;10.71;67.29
66196;BME280;53000;45.182;5.736;2022-11-11T06:51:16;100937.25;;;10.71;67.54
66196;BME280;53000;45.182;5.736;2022-11-11T06:53:42;100935.56;;;10.70;66.87
66196;BME280;53000;45.182;5.736;2022-11-11T06:56:10;100949.09;;;10.70;67.32
66196;BME280;53000;45.182;5.736;2022-11-11T06:58:37;100949.22;;;10.68;67.61
66196;BME280;53000;45.182;5.736;2022-11-11T07:01:04;100948.09;;;10.71;67.88
66196;BME280;53000;45.182;5.736;2022-11-11T07:03:29;100943.56;;;10.71;67.16
66196;BME280;53000;45.182;5.736;2022-11-11T07:05:58;100950.81;;;10.71;67.53
66196;BME280;53000;45.182;5.736;2022-11-11T07:08:30;100948.81;;;10.73;66.89
66196;BME280;53000;45.182;5.736;2022-11-11T07:10:55;100955.59;;;10.78;67.26
66196;BME280;53000;45.182;5.736;2022-11-11T07:13:23;100945.47;;;10.80;67.48
66196;BME280;53000;45.182;5.736;2022-11-11T07:15:54;100948.06;;;10.82;67.17
66196;BME280;53000;45.182;5.736;2022-11-11T07:18:19;100948.91;;;10.82;67.50
66196;BME280;53000;45.182;5.736;2022-11-11T07:20:47;100951.63;;;10.82;67.58
66196;BME280;53000;45.182;5.736;2022-11-11T07:23:21;100953.50;;;10.82;67.29
66196;BME280;53000;45.182;5.736;2022-11-11T07:25:51;100947.19;;;10.81;67.60
66196;BME280;53000;45.182;5.736;2022-11-11T07:28:20;100958.91;;;10.82;67.80
66196;BME280;53000;45.182;5.736;2022-11-11T07:30:45;100962.34;;;10.84;67.54
66196;BME280;53000;45.182;5.736;2022-11-11T07:33:25;100961.22;;;10.87;67.63
66196;BME280;53000;45.182;5.736;2022-11-11T07:35:53;100959.47;;;10.85;66.85
66196;BME280;53000;45.182;5.736;2022-11-11T07:38:23;100952.09;;;10.88;67.54
66196;BME280;53000;45.182;5.736;2022-11-11T07:40:48;100959.25;;;10.89;67.31
66196;BME280;53000;45.182;5.736;2022-11-11T07:43:13;100963.53;;;10.91;67.39
66196;BME280;53000;45.182;5.736;2022-11-11T07:45:39;100974.97;;;10.95;67.47
66196;BME280;53000;45.182;5.736;2022-11-11T07:48:05;100971.00;;;10.99;67.66
66196;BME280;53000;45.182;5.736;2022-11-11T07:50:37;100973.19;;;11.05;67.21
66196;BME280;53000;45.182;5.736;2022-11-11T07:53:10;100967.38;;;11.10;67.82
66196;BME280;53000;45.182;5.736;2022-11-11T07:55:38;100969.09;;;11.11;67.02
66196;BME280;53000;45.182;5.736;2022-11-11T07:58:05;100974.25;;;11.14;67.17
66196;BME280;53000;45.182;5.736;2022-11-11T08:00:31;100966.84;;;11.16;67.54
66196;BME280;53000;45.182;5.736;2022-11-11T08:02:57;100968.28;;;11.20;67.59
66196;BME280;53000;45.182;5.736;2022-11-11T08:05:29;100970.47;;;11.26;67.75
66196;BME280;53000;45.182;5.736;2022-11-11T08:07:55;100966.53;;;11.30;67.46
66196;BME280;53000;45.182;5.736;2022-11-11T08:10:22;100969.00;;;11.64;67.85
66196;BME280;53000;45.182;5.736;2022-11-11T08:12:56;100960.88;;;12.55;67.41
66196;BME280;53000;45.182;5.736;2022-11-11T08:15:43;100965.66;;;13.78;66.05
66196;BME280;53000;45.182;5.736;2022-11-11T08:18:13;100953.22;;;14.76;62.57
66196;BME280;53000;45.182;5.736;2022-11-11T08:20:39;100955.06;;;15.64;60.15
66196;BME280;53000;45.182;5.736;2022-11-11T08:23:09;100957.88;;;16.57;62.19
66196;BME280;53000;45.182;5.736;2022-11-11T08:25:38;100950.25;;;17.51;60.91
66196;BME280;53000;45.182;5.736;2022-11-11T08:28:04;100954.38;;;18.42;58.08
66196;BME280;53000;45.182;5.736;2022-11-11T08:32:59;100950.84;;;19.87;55.93
66196;BME280;53000;45.182;5.736;2022-11-11T08:35:28;100948.47;;;20.50;55.01
66196;BME280;53000;45.182;5.736;2022-11-11T08:37:56;100952.09;;;21.08;52.90
66196;BME280;53000;45.182;5.736;2022-11-11T08:40:25;100948.22;;;21.52;51.84
66196;BME280;53000;45.182;5.736;2022-11-11T08:42:54;100949.28;;;21.79;49.72
66196;BME280;53000;45.182;5.736;2022-11-11T08:45:20;100950.88;;;22.02;49.06
66196;BME280;53000;45.182;5.736;2022-11-11T08:47:50;100945.09;;;22.32;47.86
66196;BME280;53000;45.182;5.736;2022-11-11T08:50:16;100946.44;;;22.49;47.39
66196;BME280;53000;45.182;5.736;2022-11-11T08:52:51;100950.03;;;22.43;46.97
66196;BME280;53000;45.182;5.736;2022-11-11T08:55:18;100944.56;;;22.50;47.16
66196;BME280;53000;45.182;5.736;2022-11-11T08:57:43;100940.81;;;22.77;46.67
66196;BME280;53000;45.182;5.736;2022-11-11T09:00:10;100938.47;;;22.94;40.54
66196;BME280;53000;45.182;5.736;2022-11-11T09:02:37;100933.63;;;23.03;44.75
66196;BME280;53000;45.182;5.736;2022-11-11T09:05:05;100935.34;;;23.04;45.35
66196;BME280;53000;45.182;5.736;2022-11-11T09:07:31;100942.34;;;23.20;44.67
66196;BME280;53000;45.182;5.736;2022-11-11T09:09:57;100940.88;;;23.44;43.45
66196;BME280;53000;45.182;5.736;2022-11-11T09:12:22;100938.50;;;23.67;41.75
66196;BME280;53000;45.182;5.736;2022-11-11T09:14:51;100934.44;;;23.90;43.91
66196;BME280;53000;45.182;5.736;2022-11-11T09:17:16;100927.56;;;24.13;42.14
66196;BME280;53000;45.182;5.736;2022-11-11T09:19:41;100930.66;;;24.36;41.91
66196;BME280;53000;45.182;5.736;2022-11-11T09:22:07;100922.31;;;24.49;42.78
66196;BME280;53000;45.182;5.736;2022-11-11T09:24:32;100916.03;;;24.67;42.52
66196;BME280;53000;45.182;5.736;2022-11-11T09:27:05;100914.47;;;24.78;41.14
66196;BME280;53000;45.182;5.736;2022-11-11T09:29:33;100925.41;;;24.98;41.80
66196;BME280;53000;45.182;5.736;2022-11-11T09:32:04;100923.66;;;25.04;41.15
66196;BME280;53000;45.182;5.736;2022-11-11T09:34:31;100923.22;;;25.07;41.28
66196;BME280;53000;45.182;5.736;2022-11-11T09:36:57;100919.81;;;25.05;40.61
66196;BME280;53000;45.182;5.736;2022-11-11T09:39:24;100913.88;;;25.01;37.65
66196;BME280;53000;45.182;5.736;2022-11-11T09:42:10;100912.97;;;25.07;39.88
66196;BME280;53000;45.182;5.736;2022-11-11T09:45:20;100927.19;;;25.18;40.09
66196;BME280;53000;45.182;5.736;2022-11-11T09:50:58;100922.84;;;25.72;39.24
66196;BME280;53000;45.182;5.736;2022-11-11T09:53:43;100929.75;;;25.88;39.41
66196;BME280;53000;45.182;5.736;2022-11-11T09:56:17;100939.25;;;25.99;37.06
66196;BME280;53000;45.182;5.736;2022-11-11T09:58:49;100937.16;;;26.13;39.17
66196;BME280;53000;45.182;5.736;2022-11-11T10:01:19;100939.41;;;26.22;36.42
66196;BME280;53000;45.182;5.736;2022-11-11T10:03:56;100934.16;;;26.14;38.21
66196;BME280;53000;45.182;5.736;2022-11-11T10:06:30;100937.38;;;26.29;37.49
66196;BME280;53000;45.182;5.736;2022-11-11T10:09:04;100939.53;;;26.27;36.33
66196;BME280;53000;45.182;5.736;2022-11-11T10:14:15;100940.03;;;26.24;35.74
66196;BME280;53000;45.182;5.736;2022-11-11T10:21:57;100921.16;;;26.45;37.04
66196;BME280;53000;45.182;5.736;2022-11-11T10:24:41;100919.38;;;26.50;36.39
66196;BME280;53000;45.182;5.736;2022-11-11T10:27:18;100915.81;;;26.43;36.25
66196;BME280;53000;45.182;5.736;2022-11-11T10:29:44;100907.75;;;26.42;36.92
66196;BME280;53000;45.182;5.736;2022-11-11T10:32:20;100905.72;;;26.49;37.01
66196;BME280;53000;45.182;5.736;2022-11-11T10:34:48;100907.19;;;26.51;34.21
66196;BME280;53000;45.182;5.736;2022-11-11T10:37:18;100903.97;;;26.36;35.13
66196;BME280;53000;45.182;5.736;2022-11-11T10:39:55;100905.47;;;26.20;36.24
66196;BME280;53000;45.182;5.736;2022-11-11T10:42:32;100903.53;;;26.21;36.91
66196;BME280;53000;45.182;5.736;2022-11-11T10:45:16;100901.41;;;26.35;36.51
66196;BME280;53000;45.182;5.736;2022-11-11T10:53:51;100884.22;;;26.75;36.10
66196;BME280;53000;45.182;5.736;2022-11-11T10:56:13;100878.19;;;26.78;36.06
66196;BME280;53000;45.182;5.736;2022-11-11T11:01:29;100878.50;;;26.58;34.77
66196;BME280;53000;45.182;5.736;2022-11-11T11:04:04;100882.38;;;26.38;35.22
66196;BME280;53000;45.182;5.736;2022-11-11T11:06:36;100877.19;;;26.11;33.85
66196;BME280;53000;45.182;5.736;2022-11-11T11:09:22;100877.56;;;25.78;35.22
66196;BME280;53000;45.182;5.736;2022-11-11T11:12:00;100869.47;;;25.58;35.76
66196;BME280;53000;45.182;5.736;2022-11-11T11:14:38;100871.63;;;25.56;36.31
66196;BME280;53000;45.182;5.736;2022-11-11T11:17:14;100868.16;;;25.61;34.55
66196;BME280;53000;45.182;5.736;2022-11-11T11:19:41;100868.69;;;25.51;35.83
66196;BME280;53000;45.182;5.736;2022-11-11T11:22:06;100859.03;;;25.54;35.74
66196;BME280;53000;45.182;5.736;2022-11-11T11:24:36;100861.53;;;25.43;35.58
66196;BME280;53000;45.182;5.736;2022-11-11T11:27:06;100857.41;;;25.27;35.72
66196;BME280;53000;45.182;5.736;2022-11-11T11:29:38;100846.09;;;25.29;36.11
66196;BME280;53000;45.182;5.736;2022-11-11T11:32:31;100852.59;;;25.41;35.68
66196;BME280;53000;45.182;5.736;2022-11-11T11:34:59;100843.97;;;25.49;35.61
66196;BME280;53000;45.182;5.736;2022-11-11T11:37:29;100842.41;;;25.54;36.33
66196;BME280;53000;45.182;5.736;2022-11-11T11:39:59;100836.81;;;25.60;35.57
66196;BME280;53000;45.182;5.736;2022-11-11T11:42:39;100839.59;;;25.60;35.81
66196;BME280;53000;45.182;5.736;2022-11-11T11:45:36;100837.19;;;25.64;36.44
66196;BME280;53000;45.182;5.736;2022-11-11T11:56:47;100816.16;;;25.75;35.75
66196;BME280;53000;45.182;5.736;2022-11-11T11:59:27;100816.63;;;25.71;35.98
66196;BME280;53000;45.182;5.736;2022-11-11T12:10:14;100793.47;;;25.47;35.80
66196;BME280;53000;45.182;5.736;2022-11-11T12:13:07;100787.50;;;25.44;35.91
66196;BME280;53000;45.182;5.736;2022-11-11T12:15:46;100786.50;;;25.57;35.81
66196;BME280;53000;45.182;5.736;2022-11-11T12:18:26;100782.28;;;25.54;35.02
66196;BME280;53000;45.182;5.736;2022-11-11T12:24:01;100772.78;;;25.62;34.79
66196;BME280;53000;45.182;5.736;2022-11-11T12:34:38;100750.50;;;25.68;33.88
66196;BME280;53000;45.182;5.736;2022-11-11T12:37:30;100749.53;;;25.63;34.67
66196;BME280;53000;45.182;5.736;2022-11-11T12:40:24;100741.59;;;25.66;35.28
66196;BME280;53000;45.182;5.736;2022-11-11T12:43:02;100738.59;;;25.68;34.94
66196;BME280;53000;45.182;5.736;2022-11-11T12:45:41;100728.31;;;25.68;34.42
66196;BME280;53000;45.182;5.736;2022-11-11T12:48:45;100718.34;;;25.67;35.01
66196;BME280;53000;45.182;5.736;2022-11-11T12:54:16;100709.53;;;25.70;33.74
66196;BME280;53000;45.182;5.736;2022-11-11T13:11:19;100680.34;;;25.68;34.67
66196;BME280;53000;45.182;5.736;2022-11-11T13:14:10;100671.56;;;25.71;33.89
66196;BME280;53000;45.182;5.736;2022-11-11T13:16:40;100674.44;;;25.64;34.42
66196;BME280;53000;45.182;5.736;2022-11-11T13:19:22;100667.81;;;25.65;34.62
66196;BME280;53000;45.182;5.736;2022-11-11T13:22:02;100659.88;;;25.69;34.52
66196;BME280;53000;45.182;5.736;2022-11-11T13:24:31;100660.72;;;25.69;34.90
66196;BME280;53000;45.182;5.736;2022-11-11T13:30:06;100653.09;;;25.65;34.91
66196;BME280;53000;45.182;5.736;2022-11-11T13:32:48;100651.56;;;25.69;34.92
66196;BME280;53000;45.182;5.736;2022-11-11T13:35:35;100641.84;;;25.60;34.94
66196;BME280;53000;45.182;5.736;2022-11-11T13:38:22;100641.53;;;25.38;34.87
66196;BME280;53000;45.182;5.736;2022-11-11T13:40:51;100633.28;;;25.13;34.63
66196;BME280;53000;45.182;5.736;2022-11-11T13:43:34;100627.75;;;25.13;34.87
66196;BME280;53000;45.182;5.736;2022-11-11T13:46:03;100625.22;;;25.11;35.40
66196;BME280;53000;45.182;5.736;2022-11-11T13:51:18;100623.53;;;25.10;35.34
66196;BME280;53000;45.182;5.736;2022-11-11T13:53:46;100619.00;;;25.16;35.83
66196;BME280;53000;45.182;5.736;2022-11-11T13:56:37;100604.88;;;25.17;35.26
66196;BME280;53000;45.182;5.736;2022-11-11T13:59:04;100615.59;;;25.14;34.89
66196;BME280;53000;45.182;5.736;2022-11-11T14:01:35;100611.47;;;25.04;35.13
66196;BME280;53000;45.182;5.736;2022-11-11T14:04:10;100617.53;;;24.95;35.01
66196;BME280;53000;45.182;5.736;2022-11-11T14:06:52;100622.84;;;24.78;35.49
66196;BME280;53000;45.182;5.736;2022-11-11T14:12:36;100613.47;;;24.10;36.24
66196;BME280;53000;45.182;5.736;2022-11-11T14:15:03;100622.00;;;23.83;36.80
66196;BME280;53000;45.182;5.736;2022-11-11T14:17:32;100614.28;;;23.54;36.99
66196;BME280;53000;45.182;5.736;2022-11-11T14:20:01;100617.59;;;23.31;38.05
66196;BME280;53000;45.182;5.736;2022-11-11T14:22:46;100612.88;;;22.93;38.35
66196;BME280;53000;45.182;5.736;2022-11-11T14:25:27;100617.19;;;22.62;38.34
66196;BME280;53000;45.182;5.736;2022-11-11T14:27:52;100613.88;;;22.40;39.29
66196;BME280;53000;45.182;5.736;2022-11-11T14:30:36;100618.75;;;22.31;39.74
66196;BME280;53000;45.182;5.736;2022-11-11T14:35:44;100619.16;;;22.01;39.78
66196;BME280;53000;45.182;5.736;2022-11-11T14:49:52;100610.06;;;21.06;41.47
66196;BME280;53000;45.182;5.736;2022-11-11T14:52:42;100603.44;;;20.94;41.74